Time;durP1;ratioP1;P1;durP2;ratioP2;P2;SDS_P1;SDS_P2;PMS_P1;PMS_P2;Temp;Humidity;BMP_temperature;BMP_pressure;BME280_temperature;BME280_humidity;BME280_pressure;Samples;Min_cycle;Max_cycle;Signal;HPM_P1;HPM_P2
2022/10/22 00:01:10;;;;;;;32.75;21.25;;;;;;;12.08;82.51;100440.19;5006807;28;20029;-72
2022/10/22 00:03:36;;;;;;;32.78;20.55;;;;;;;12.18;82.62;100459.88;5007395;28;20033;-72
2022/10/22 00:06:01;;;;;;;28.25;20.98;;;;;;;12.00;82.83;100437.38;5007224;28;20033;-73
2022/10/22 00:08:27;;;;;;;34.78;20.67;;;;;;;12.01;83.22;100426.47;5007645;28;20392;-72
2022/10/22 00:10:52;;;;;;;30.95;22.00;;;;;;;12.14;83.42;100456.63;5005443;28;20132;-73
2022/10/22 00:13:19;;;;;;;35.67;20.30;;;;;;;11.90;82.74;100413.16;5007113;28;20030;-72
2022/10/22 00:15:44;;;;;;;30.10;21.60;;;;;;;12.11;82.90;100456.91;5007224;28;20029;-72
2022/10/22 00:18:10;;;;;;;28.35;20.08;;;;;;;12.11;83.88;100461.44;5007315;28;20033;-72
2022/10/22 00:20:35;;;;;;;35.08;20.17;;;;;;;11.98;83.93;100436.66;5006974;28;20042;-72
2022/10/22 00:23:01;;;;;;;31.63;20.05;;;;;;;12.05;83.98;100449.41;5005996;28;20025;-73
2022/10/22 00:25:26;;;;;;;35.17;21.83;;;;;;;11.99;84.13;100439.22;5005661;28;20036;-73
2022/10/22 00:27:51;;;;;;;33.30;20.98;;;;;;;12.08;84.61;100459.88;5006679;28;20072;-73
2022/10/22 00:30:17;;;;;;;32.22;19.52;;;;;;;12.09;84.68;100458.03;5007177;28;20046;-72
2022/10/22 00:32:42;;;;;;;32.15;20.65;;;;;;;12.00;84.55;100440.06;5007091;28;20554;-73
2022/10/22 00:35:08;;;;;;;31.70;20.80;;;;;;;12.01;84.66;100445.31;5006711;28;20043;-73
2022/10/22 00:37:33;;;;;;;29.92;21.15;;;;;;;11.99;84.63;100435.69;5005196;28;20026;-73
2022/10/22 00:39:59;;;;;;;30.77;20.45;;;;;;;12.11;84.69;100456.91;5006690;28;20129;-72
2022/10/22 00:42:26;;;;;;;30.92;22.08;;;;;;;11.90;84.81;100428.47;5007135;28;20065;-72
2022/10/22 00:45:10;;;;;;;27.27;20.52;;;;;;;12.05;84.70;100444.03;5005540;28;20344;-73
2022/10/22 00:47:53;;;;;;;31.70;22.13;;;;;;;12.06;85.35;100452.94;5006924;28;20105;-72
2022/10/22 00:50:31;;;;;;;34.22;21.33;;;;;;;12.05;85.27;100444.03;5007180;28;20056;-73
2022/10/22 00:52:57;;;;;;;33.45;22.00;;;;;;;11.97;85.56;100429.59;5008010;28;20113;-72
2022/10/22 00:55:25;;;;;;;34.80;21.73;;;;;;;12.01;85.67;100444.44;5006430;28;20026;-73
2022/10/22 00:57:54;;;;;;;31.02;20.25;;;;;;;12.09;85.37;100452.66;5007833;28;20476;-72
2022/10/22 01:00:20;;;;;;;33.63;21.42;;;;;;;11.99;85.58;100447.28;5007802;28;20042;-73
2022/10/22 01:02:48;;;;;;;31.83;21.75;;;;;;;12.01;85.83;100449.81;5006219;28;20030;-72
2022/10/22 01:05:14;;;;;;;33.03;21.25;;;;;;;11.95;85.82;100426.19;5008017;28;20109;-73
2022/10/22 01:07:52;;;;;;;31.50;21.67;;;;;;;12.05;85.87;100449.41;5006354;28;20022;-72
2022/10/22 01:10:31;;;;;;;37.15;22.85;;;;;;;12.11;86.00;100456.03;5007886;28;20422;-72
2022/10/22 01:13:08;;;;;;;33.28;22.88;;;;;;;12.11;86.16;100448.84;5006324;28;20120;-73
2022/10/22 01:15:39;;;;;;;34.80;21.15;;;;;;;12.10;86.16;100435.53;5007753;28;20527;-72
2022/10/22 01:18:35;;;;;;;28.88;21.15;;;;;;;12.11;86.11;100439.91;5007646;28;20495;-73
2022/10/22 01:21:25;;;;;;;29.17;19.75;;;;;;;12.20;85.71;100436.38;5007845;28;20109;-73
2022/10/22 01:24:24;;;;;;;29.58;20.05;;;;;;;12.22;85.51;100435.25;5007815;28;20109;-72
2022/10/22 01:26:53;;;;;;;32.83;20.30;;;;;;;12.24;86.03;100432.41;5011277;28;20033;-72
2022/10/22 01:29:26;;;;;;;27.05;19.70;;;;;;;12.24;86.05;100435.97;5010904;28;20045;-72
2022/10/22 01:32:21;;;;;;;38.30;20.75;;;;;;;12.26;86.00;100434.00;5009758;28;20442;-72
2022/10/22 01:34:51;;;;;;;31.88;21.70;;;;;;;12.24;85.98;100418.97;5008318;28;20037;-72
2022/10/22 01:37:20;;;;;;;33.25;21.05;;;;;;;12.16;86.24;100408.09;5010942;28;20030;-72
2022/10/22 01:39:48;;;;;;;31.25;21.17;;;;;;;12.18;86.84;100404.25;5009511;28;20057;-72
2022/10/22 01:42:14;;;;;;;32.17;22.77;;;;;;;12.31;86.47;100414.72;5010831;28;20395;-73
2022/10/22 01:44:40;;;;;;;30.92;19.95;;;;;;;12.34;86.46;100411.72;5011137;28;20056;-72
2022/10/22 01:47:17;;;;;;;37.38;21.58;;;;;;;12.32;86.18;100411.88;5010728;28;20091;-73
2022/10/22 01:50:07;;;;;;;30.27;21.20;;;;;;;12.33;85.78;100421.66;4991282;28;20042;-73
2022/10/22 01:52:45;;;;;;;32.13;21.58;;;;;;;12.34;86.01;100417.97;4990325;28;20040;-70
2022/10/22 01:55:18;;;;;;;29.48;20.73;;;;;;;12.23;86.51;100411.91;4991193;28;20018;-69
2022/10/22 01:57:46;;;;;;;31.15;21.45;;;;;;;12.29;86.12;100430.16;4998107;28;20442;-69
2022/10/22 02:00:15;;;;;;;28.35;20.70;;;;;;;12.17;86.82;100423.22;5008747;28;20046;-69
2022/10/22 02:02:53;;;;;;;31.52;22.02;;;;;;;12.23;87.50;100428.03;5009153;28;20121;-69
2022/10/22 02:05:31;;;;;;;33.13;23.48;;;;;;;12.09;87.52;100420.41;5010577;28;20443;-69
2022/10/22 02:08:01;;;;;;;33.70;23.58;;;;;;;12.12;86.99;100437.09;5010140;28;20057;-69
2022/10/22 02:10:29;;;;;;;40.42;24.67;;;;;;;12.01;87.69;100425.63;5008996;28;20104;-70
2022/10/22 02:12:56;;;;;;;36.92;24.63;;;;;;;12.00;87.29;100434.69;5010217;28;20029;-69
2022/10/22 02:15:24;;;;;;;34.92;23.63;;;;;;;11.92;86.65;100435.38;5010601;28;20068;-70
2022/10/22 02:17:52;;;;;;;35.47;22.83;;;;;;;11.77;87.63;100417.13;5009907;28;20029;-70
2022/10/22 02:20:22;;;;;;;31.20;21.73;;;;;;;11.86;87.19;100435.94;5010278;28;20400;-70
2022/10/22 02:22:48;;;;;;;33.53;23.80;;;;;;;11.80;87.93;100436.50;5010527;28;20431;-70
2022/10/22 02:25:15;;;;;;;39.08;23.98;;;;;;;11.72;88.07;100425.59;5009755;28;20033;-70
2022/10/22 02:27:59;;;;;;;35.58;25.33;;;;;;;11.64;88.63;100429.97;5008116;28;20053;-69
2022/10/22 02:30:25;;;;;;;36.63;23.20;;;;;;;11.64;88.78;100427.28;5010930;28;20069;-70
2022/10/22 02:32:56;;;;;;;34.10;22.67;;;;;;;11.58;89.24;100429.50;5011053;28;20317;-70
2022/10/22 02:35:24;;;;;;;32.65;23.52;;;;;;;11.46;88.81;100425.25;5008881;28;20431;-70
2022/10/22 02:37:54;;;;;;;33.72;23.05;;;;;;;11.47;89.15;100435.00;5008816;28;20048;-69
2022/10/22 02:40:20;;;;;;;36.45;23.52;;;;;;;11.48;89.88;100441.19;5010449;28;20034;-69
2022/10/22 02:42:47;;;;;;;35.00;24.05;;;;;;;11.44;89.53;100440.66;5010299;28;20135;-69
2022/10/22 02:45:14;;;;;;;35.35;23.55;;;;;;;11.33;90.14;100419.28;5008391;28;20708;-69
2022/10/22 02:47:40;;;;;;;37.45;23.35;;;;;;;11.42;90.48;100436.41;5008361;28;20088;-69
2022/10/22 02:50:06;;;;;;;36.67;24.42;;;;;;;11.31;91.11;100421.25;5007729;28;20045;-69
2022/10/22 02:52:31;;;;;;;33.80;23.85;;;;;;;11.39;90.82;100445.56;5009909;28;20464;-69
2022/10/22 02:54:57;;;;;;;35.58;23.75;;;;;;;11.27;91.04;100430.56;5009530;28;20629;-69
2022/10/22 02:57:22;;;;;;;33.80;22.90;;;;;;;11.31;91.72;100439.19;5010232;28;20054;-69
2022/10/22 02:59:48;;;;;;;36.83;23.23;;;;;;;11.37;90.96;100449.38;5008356;28;20035;-73
2022/10/22 03:02:13;;;;;;;39.17;24.15;;;;;;;11.32;91.55;100441.72;5008807;28;20029;-73
2022/10/22 03:04:41;;;;;;;33.22;23.40;;;;;;;11.17;91.41;100432.38;5009455;28;20101;-72
2022/10/22 03:07:07;;;;;;;34.47;23.27;;;;;;;11.22;90.89;100446.22;5009385;28;20443;-72
2022/10/22 03:09:32;;;;;;;33.85;23.05;;;;;;;11.20;91.07;100452.72;5008357;28;20032;-73
2022/10/22 03:11:58;;;;;;;40.35;25.08;;;;;;;11.20;90.87;100450.91;5007620;28;20048;-73
2022/10/22 03:14:23;;;;;;;34.90;24.77;;;;;;;11.09;91.12;100432.19;5009535;28;20029;-72
2022/10/22 03:16:49;;;;;;;34.00;24.23;;;;;;;11.06;91.08;100439.69;5009315;28;20121;-72
2022/10/22 03:19:14;;;;;;;39.05;25.23;;;;;;;11.03;91.67;100435.41;5007615;28;20406;-73
2022/10/22 03:21:44;;;;;;;38.17;25.48;;;;;;;11.09;91.88;100445.59;5007677;28;20037;-73
2022/10/22 03:24:19;;;;;;;39.60;25.48;;;;;;;11.07;91.83;100446.72;5008885;28;20539;-72
2022/10/22 03:26:48;;;;;;;47.92;27.52;;;;;;;10.98;92.33;100447.53;5009215;28;20526;-72
2022/10/22 03:29:14;;;;;;;41.95;25.42;;;;;;;10.87;92.06;100437.72;5007972;28;20033;-72
2022/10/22 03:31:40;;;;;;;34.08;24.33;;;;;;;10.82;92.75;100425.69;5008689;28;20033;-72
2022/10/22 03:34:05;;;;;;;41.28;26.25;;;;;;;10.90;92.93;100442.81;5008966;28;20077;-73
2022/10/22 03:36:32;;;;;;;34.35;25.05;;;;;;;10.89;93.05;100438.44;5009246;28;20365;-73
2022/10/22 03:38:59;;;;;;;36.90;24.88;;;;;;;10.81;93.37;100427.53;5009175;28;20415;-73
2022/10/22 03:41:25;;;;;;;42.55;24.92;;;;;;;10.78;93.56;100414.41;5008656;28;20037;-72
2022/10/22 03:43:52;;;;;;;35.15;24.83;;;;;;;10.80;93.68;100409.72;5007471;28;20036;-73
2022/10/22 03:46:18;;;;;;;35.20;24.83;;;;;;;10.90;94.11;100423.22;5007525;28;20029;-73
2022/10/22 03:48:44;;;;;;;30.80;22.92;;;;;;;10.82;94.41;100420.34;5007933;28;20030;-72
2022/10/22 03:51:09;;;;;;;38.17;24.38;;;;;;;10.84;94.71;100427.25;5007276;28;20028;-72
2022/10/22 03:53:35;;;;;;;34.75;24.42;;;;;;;10.91;94.86;100439.19;5009203;28;20022;-73
2022/10/22 03:56:01;;;;;;;35.70;24.05;;;;;;;10.93;94.89;100447.94;5007279;28;20026;-72
2022/10/22 03:58:26;;;;;;;37.63;23.08;;;;;;;10.82;95.10;100428.38;5008751;28;20069;-72
2022/10/22 04:00:52;;;;;;;33.97;23.85;;;;;;;10.95;95.53;100432.56;5008552;28;20046;-73
2022/10/22 04:03:17;;;;;;;33.70;23.73;;;;;;;10.83;95.93;100417.53;5008209;28;20045;-73
2022/10/22 04:05:42;;;;;;;34.90;23.77;;;;;;;10.97;96.06;100433.25;5008703;28;20391;-72
2022/10/22 04:08:08;;;;;;;36.60;22.75;;;;;;;10.99;96.32;100433.97;5007106;28;20465;-72
2022/10/22 04:10:34;;;;;;;35.25;23.70;;;;;;;10.94;96.22;100435.38;5007306;28;20040;-73
2022/10/22 04:12:59;;;;;;;34.28;22.65;;;;;;;11.00;96.34;100435.66;5006261;28;20116;-72
2022/10/22 04:15:27;;;;;;;36.72;24.73;;;;;;;10.98;96.53;100443.03;5008374;28;20032;-73
2022/10/22 04:17:53;;;;;;;34.22;23.95;;;;;;;10.99;96.71;100433.13;5008391;28;20088;-73
2022/10/22 04:20:18;;;;;;;36.42;23.45;;;;;;;10.86;96.70;100411.88;5006753;28;20034;-72
2022/10/22 04:22:44;;;;;;;34.17;24.38;;;;;;;10.87;97.34;100410.06;5008689;28;20045;-72
2022/10/22 04:25:09;;;;;;;34.35;23.55;;;;;;;10.85;97.88;100407.50;5008126;28;20060;-72
2022/10/22 04:27:34;;;;;;;36.47;23.00;;;;;;;10.88;98.11;100403.69;5008541;28;20034;-72
2022/10/22 04:30:00;;;;;;;34.05;23.08;;;;;;;10.89;97.79;100406.25;5007705;28;20033;-72
2022/10/22 04:32:26;;;;;;;34.00;22.83;;;;;;;10.84;98.03;100403.09;5008173;28;20045;-72
2022/10/22 04:34:52;;;;;;;32.03;22.48;;;;;;;10.77;97.97;100383.19;5008217;28;20037;-72
2022/10/22 04:37:18;;;;;;;29.17;20.50;;;;;;;10.85;98.40;100404.84;5006937;28;20041;-73
2022/10/22 04:39:43;;;;;;;27.38;20.77;;;;;;;10.79;98.35;100407.19;5008173;28;20054;-73
2022/10/22 04:42:09;;;;;;;32.80;22.33;;;;;;;10.69;98.50;100403.59;5008141;28;20091;-73
2022/10/22 04:44:35;;;;;;;28.02;20.67;;;;;;;10.66;97.89;100396.69;5008445;28;20578;-73
2022/10/22 04:47:00;;;;;;;28.85;21.58;;;;;;;10.79;98.51;100420.59;5008074;28;20026;-72
2022/10/22 04:49:26;;;;;;;32.63;22.65;;;;;;;10.78;98.28;100425.13;5007857;28;20499;-72
2022/10/22 04:51:51;;;;;;;30.45;22.42;;;;;;;10.74;99.15;100415.63;5008210;28;20029;-73
2022/10/22 04:54:17;;;;;;;32.47;22.30;;;;;;;10.72;99.30;100403.34;5006477;28;20030;-73
2022/10/22 04:56:42;;;;;;;31.80;21.45;;;;;;;10.81;99.70;100411.41;5006249;28;20052;-72
2022/10/22 04:59:11;;;;;;;34.25;22.83;;;;;;;10.82;99.59;100410.47;5000182;28;20041;-72
2022/10/22 05:01:41;;;;;;;32.92;20.95;;;;;;;10.75;99.99;100393.22;5002246;28;20021;-72
2022/10/22 05:04:11;;;;;;;33.42;23.30;;;;;;;10.63;100.00;100380.00;5005381;28;20064;-73
2022/10/22 05:06:36;;;;;;;44.22;28.92;;;;;;;10.80;100.00;100411.59;5001817;28;20790;-72
2022/10/22 05:09:07;;;;;;;38.13;26.27;;;;;;;10.79;100.00;100426.81;5002294;28;20107;-70
2022/10/22 05:11:36;;;;;;;39.42;26.88;;;;;;;10.54;99.78;100378.97;5006167;28;20080;-70
2022/10/22 05:14:04;;;;;;;39.78;26.65;;;;;;;10.83;100.00;100425.56;5011598;28;20037;-69
2022/10/22 05:16:31;;;;;;;33.13;24.92;;;;;;;10.83;100.00;100425.56;5012054;28;20056;-70
2022/10/22 05:18:58;;;;;;;32.13;23.65;;;;;;;10.84;100.00;100424.56;5011585;28;20030;-69
2022/10/22 05:21:23;;;;;;;32.03;24.35;;;;;;;10.85;100.00;100434.34;5012060;28;20045;-70
2022/10/22 05:23:49;;;;;;;36.30;23.40;;;;;;;10.84;100.00;100424.56;5012089;28;20047;-69
2022/10/22 05:26:17;;;;;;;35.47;23.00;;;;;;;10.84;100.00;100427.25;5011979;28;20030;-70
2022/10/22 05:28:43;;;;;;;36.80;24.95;;;;;;;10.94;100.00;100430.84;5011951;28;20480;-70
2022/10/22 05:31:11;;;;;;;37.85;26.58;;;;;;;10.99;100.00;100438.47;5011607;28;20028;-70
2022/10/22 05:33:36;;;;;;;39.35;27.67;;;;;;;10.97;100.00;100429.75;5010667;28;20033;-70
2022/10/22 05:36:04;;;;;;;36.60;25.88;;;;;;;11.01;100.00;100436.53;5010567;28;20045;-70
2022/10/22 05:38:31;;;;;;;40.63;25.08;;;;;;;11.02;100.00;100433.72;5011584;28;20061;-70
2022/10/22 05:41:04;;;;;;;37.53;24.05;;;;;;;11.06;100.00;100439.69;5009704;28;20152;-70
2022/10/22 05:43:30;;;;;;;33.65;24.10;;;;;;;10.94;100.00;100406.69;5011257;28;20480;-70
2022/10/22 05:46:00;;;;;;;37.38;23.95;;;;;;;11.11;100.00;100445.47;5009506;28;20096;-69
2022/10/22 05:48:26;;;;;;;38.22;23.55;;;;;;;11.08;100.00;100422.44;5011270;28;20033;-70
2022/10/22 05:50:51;;;;;;;34.95;23.95;;;;;;;11.14;100.00;100424.59;5010070;28;20034;-70
2022/10/22 05:53:17;;;;;;;34.15;23.52;;;;;;;11.14;100.00;100418.34;5011333;28;20022;-70
2022/10/22 05:55:43;;;;;;;34.30;23.17;;;;;;;11.16;100.00;100422.59;5009539;28;20112;-70
2022/10/22 05:58:09;;;;;;;36.22;22.90;;;;;;;11.12;100.00;100423.84;5011318;28;20365;-69
2022/10/22 06:00:35;;;;;;;37.90;24.73;;;;;;;11.19;100.00;100438.44;5007797;28;20040;-70
2022/10/22 06:03:01;;;;;;;33.40;23.80;;;;;;;11.27;100.00;100457.41;5016010;28;20030;-70
2022/10/22 06:05:26;;;;;;;35.17;23.80;;;;;;;11.32;100.00;100452.47;5018075;28;20025;-70
2022/10/22 06:07:52;;;;;;;39.72;24.27;;;;;;;11.42;100.00;100477.53;5027344;28;20046;-70
2022/10/22 06:10:19;;;;;;;43.33;24.45;;;;;;;11.44;99.50;100478.25;5025731;28;20100;-70
2022/10/22 06:12:49;;;;;;;37.17;23.42;;;;;;;11.48;99.44;100485.03;5018431;28;20046;-70
2022/10/22 06:15:16;;;;;;;41.10;24.35;;;;;;;11.48;99.68;100484.19;5009455;28;20025;-70
2022/10/22 06:17:46;;;;;;;42.42;24.63;;;;;;;11.32;99.54;100440.91;5009682;28;20050;-70
2022/10/22 06:20:12;;;;;;;38.67;24.45;;;;;;;11.54;99.87;100473.75;4999566;28;20029;-70
2022/10/22 06:22:38;;;;;;;39.85;23.73;;;;;;;11.61;99.94;100479.44;5020097;28;20500;-70
2022/10/22 06:25:05;;;;;;;40.45;24.38;;;;;;;11.66;99.65;100468.28;5020891;28;20021;-70
2022/10/22 06:27:30;;;;;;;38.35;24.52;;;;;;;11.75;100.00;100475.53;5014251;28;20045;-70
2022/10/22 06:29:56;;;;;;;35.72;24.27;;;;;;;11.71;99.64;100463.38;5025728;28;20036;-70
2022/10/22 06:32:21;;;;;;;38.22;24.85;;;;;;;11.81;99.96;100467.78;5014239;28;20037;-70
2022/10/22 06:34:47;;;;;;;37.42;25.13;;;;;;;11.91;99.46;100475.84;5022816;28;20052;-70
2022/10/22 06:37:14;;;;;;;34.60;24.10;;;;;;;12.03;99.15;100482.81;5014920;28;20420;-70
2022/10/22 06:39:39;;;;;;;37.30;25.88;;;;;;;12.02;99.06;100473.88;5025565;28;20052;-70
2022/10/22 06:42:05;;;;;;;36.30;26.23;;;;;;;12.04;98.74;100458.47;5011131;28;20033;-70
2022/10/22 06:44:31;;;;;;;39.20;25.73;;;;;;;12.27;98.47;100494.84;5024595;28;20030;-70
2022/10/22 06:46:57;;;;;;;43.60;26.77;;;;;;;12.35;97.84;100488.75;5018741;28;20095;-70
2022/10/22 06:49:22;;;;;;;40.85;27.10;;;;;;;12.46;97.43;100488.59;5006960;28;20455;-70
2022/10/22 06:51:52;;;;;;;43.40;27.17;;;;;;;12.47;96.91;100482.22;5008982;28;20058;-70
2022/10/22 06:54:18;;;;;;;36.15;25.73;;;;;;;12.63;95.87;100490.56;5020375;28;20117;-70
2022/10/22 06:56:43;;;;;;;41.22;26.85;;;;;;;12.69;95.37;100484.63;5017031;28;20120;-70
2022/10/22 06:59:08;;;;;;;46.92;27.73;;;;;;;12.69;94.69;100474.72;5016484;28;20038;-70
2022/10/22 07:01:35;;;;;;;39.60;26.23;;;;;;;12.85;94.83;100491.13;5012983;28;20088;-69
2022/10/22 07:04:01;;;;;;;40.67;26.98;;;;;;;12.90;93.85;100482.59;5010655;28;20037;-68
2022/10/22 07:06:28;;;;;;;40.83;27.90;;;;;;;12.98;93.35;100486.25;5022047;28;20463;-69
2022/10/22 07:08:55;;;;;;;41.67;26.73;;;;;;;13.06;93.51;100488.25;5018076;28;20098;-68
2022/10/22 07:11:27;;;;;;;40.67;26.67;;;;;;;13.10;92.85;100468.94;5026603;28;20033;-69
2022/10/22 07:13:57;;;;;;;41.65;26.85;;;;;;;13.21;92.33;100462.53;5027865;28;20040;-68
2022/10/22 07:16:24;;;;;;;41.03;27.45;;;;;;;13.20;91.24;100452.78;5021235;28;20109;-69
2022/10/22 07:18:50;;;;;;;39.58;26.42;;;;;;;13.37;90.93;100476.22;5008318;28;20034;-68
2022/10/22 07:21:17;;;;;;;38.67;25.75;;;;;;;13.50;90.82;100477.59;5007277;28;20034;-68
2022/10/22 07:23:43;;;;;;;45.97;28.55;;;;;;;13.52;89.78;100466.66;5021040;28;20060;-68
2022/10/22 07:26:12;;;;;;;39.05;26.95;;;;;;;13.71;89.00;100470.09;5014493;28;20128;-68
2022/10/22 07:28:39;;;;;;;40.00;25.17;;;;;;;13.86;88.34;100473.13;5008308;28;20026;-68
2022/10/22 07:31:06;;;;;;;38.90;28.67;;;;;;;14.14;86.89;100472.06;5016992;28;20380;-68
2022/10/22 07:33:32;;;;;;;36.78;25.63;;;;;;;14.35;85.69;100474.50;5023409;28;20021;-68
2022/10/22 07:35:59;;;;;;;38.50;27.15;;;;;;;14.60;84.63;100479.94;5010742;28;20389;-68
2022/10/22 07:38:25;;;;;;;37.45;24.80;;;;;;;15.03;82.97;100471.81;5020361;28;20038;-68
2022/10/22 07:40:51;;;;;;;32.58;23.02;;;;;;;15.27;79.02;100457.59;5015766;28;20116;-68
2022/10/22 07:43:16;;;;;;;37.15;22.63;;;;;;;15.54;77.64;100460.09;5012600;28;20044;-69
2022/10/22 07:45:42;;;;;;;30.92;21.20;;;;;;;15.66;75.91;100461.50;5024122;28;20041;-69
2022/10/22 07:48:07;;;;;;;28.73;20.58;;;;;;;15.74;75.16;100461.56;4987986;28;20018;-68
2022/10/22 07:50:33;;;;;;;34.58;20.40;;;;;;;15.77;74.74;100467.47;5001986;28;20018;-68
2022/10/22 07:52:58;;;;;;;28.67;19.77;;;;;;;15.80;75.24;100463.59;5016619;28;20058;-68
2022/10/22 07:55:24;;;;;;;26.58;19.85;;;;;;;15.77;75.16;100458.53;5014794;28;20464;-68
2022/10/22 07:57:50;;;;;;;28.02;19.70;;;;;;;15.77;75.32;100462.06;5023635;28;20041;-68
2022/10/22 08:00:16;;;;;;;27.90;19.48;;;;;;;15.87;74.98;100470.06;5021077;28;20030;-68
2022/10/22 08:02:41;;;;;;;28.13;20.63;;;;;;;15.90;75.19;100467.03;5015035;28;20033;-68
2022/10/22 08:05:07;;;;;;;26.33;19.00;;;;;;;15.93;74.86;100463.13;5013834;28;20757;-68
2022/10/22 08:07:32;;;;;;;30.65;19.98;;;;;;;15.99;75.17;100466.00;5007127;28;20467;-68
2022/10/22 08:09:58;;;;;;;26.60;19.00;;;;;;;16.03;74.87;100453.88;5023405;28;20025;-68
2022/10/22 08:12:23;;;;;;;27.52;19.05;;;;;;;16.15;75.03;100468.75;5013156;28;20049;-68
2022/10/22 08:14:49;;;;;;;25.75;17.02;;;;;;;16.27;73.92;100453.88;5016687;28;20044;-68
2022/10/22 08:17:14;;;;;;;22.95;17.20;;;;;;;16.32;73.73;100456.09;5019498;28;20039;-68
2022/10/22 08:19:40;;;;;;;23.10;17.88;;;;;;;16.30;73.81;100444.56;5008409;28;20014;-68
2022/10/22 08:22:05;;;;;;;25.52;17.02;;;;;;;16.44;73.80;100460.22;5001324;28;20144;-68
2022/10/22 08:24:31;;;;;;;28.42;17.17;;;;;;;16.48;73.37;100469.69;4997744;28;20037;-68
2022/10/22 08:26:56;;;;;;;26.48;16.25;;;;;;;16.52;73.48;100468.31;5000584;28;20056;-68
2022/10/22 08:29:22;;;;;;;23.77;16.88;;;;;;;16.54;73.42;100467.13;5001724;28;20061;-68
2022/10/22 08:31:49;;;;;;;23.98;16.42;;;;;;;16.52;73.45;100447.50;5006513;28;20571;-68
2022/10/22 08:34:15;;;;;;;24.33;17.55;;;;;;;16.54;73.23;100439.22;5005633;28;20469;-68
2022/10/22 08:36:41;;;;;;;23.00;16.48;;;;;;;16.53;73.26;100459.16;5015232;28;20511;-68
2022/10/22 08:39:06;;;;;;;26.52;16.90;;;;;;;16.50;73.50;100446.81;5013314;28;20080;-68
2022/10/22 08:41:40;;;;;;;20.90;16.80;;;;;;;16.64;73.57;100454.25;5009206;28;20570;-68
2022/10/22 08:44:13;;;;;;;27.60;17.33;;;;;;;16.69;73.84;100448.34;5009797;28;20071;-68
2022/10/22 08:46:51;;;;;;;27.90;17.33;;;;;;;16.77;73.76;100461.88;5004389;28;20117;-68
2022/10/22 08:49:29;;;;;;;24.33;16.85;;;;;;;16.77;73.12;100448.34;5015762;28;20369;-68
2022/10/22 08:51:57;;;;;;;26.60;16.70;;;;;;;16.90;73.03;100444.06;5011826;28;20053;-68
2022/10/22 08:54:47;;;;;;;20.77;15.73;;;;;;;17.08;72.04;100454.72;5017746;28;20096;-68
2022/10/22 08:57:30;;;;;;;21.38;15.32;;;;;;;17.16;72.16;100450.09;5019055;28;20061;-68
2022/10/22 09:00:14;;;;;;;17.50;13.73;;;;;;;17.27;71.86;100454.31;5007983;28;20510;-68
2022/10/22 09:03:00;;;;;;;21.53;15.77;;;;;;;17.33;71.55;100438.22;4999430;28;20034;-68
2022/10/22 09:05:54;;;;;;;20.10;14.15;;;;;;;17.68;70.56;100461.31;5020075;28;20458;-68
2022/10/22 09:08:21;;;;;;;21.55;14.88;;;;;;;17.76;69.79;100455.84;4990011;28;20044;-68
2022/10/22 09:11:10;;;;;;;24.67;14.98;;;;;;;18.00;67.76;100466.59;5014878;28;20095;-68
2022/10/22 09:13:36;;;;;;;18.02;13.63;;;;;;;18.11;67.64;100477.03;5010783;28;20512;-68
2022/10/22 09:16:24;;;;;;;21.90;15.05;;;;;;;18.12;67.45;100469.75;5025327;28;20057;-68
2022/10/22 09:19:02;;;;;;;19.48;14.32;;;;;;;18.13;67.74;100471.41;4977172;28;20045;-68
2022/10/22 09:21:42;;;;;;;19.40;14.38;;;;;;;18.13;67.85;100474.13;5004999;28;20073;-68
2022/10/22 09:24:12;;;;;;;21.58;13.63;;;;;;;18.15;67.98;100474.81;4996197;28;20040;-68
2022/10/22 09:26:43;;;;;;;18.77;13.88;;;;;;;18.14;68.46;100468.53;5019170;28;20535;-68
2022/10/22 09:29:22;;;;;;;22.10;14.00;;;;;;;18.13;68.46;100474.13;5008655;28;20487;-68
2022/10/22 09:31:50;;;;;;;22.33;13.50;;;;;;;18.16;68.33;100474.63;5003498;28;20245;-68
2022/10/22 09:34:23;;;;;;;20.98;13.73;;;;;;;18.17;68.11;100472.75;4999797;28;20032;-68
2022/10/22 09:37:24;;;;;;;18.60;12.77;;;;;;;18.16;68.80;100469.22;5016320;28;20061;-68
2022/10/22 09:39:57;;;;;;;18.75;12.25;;;;;;;17.75;68.97;100389.06;4995174;28;20116;-68
2022/10/22 09:42:24;;;;;;;20.67;11.65;;;;;;;17.69;68.80;100389.75;5005297;28;20050;-68
2022/10/22 09:44:56;;;;;;;18.98;12.55;;;;;;;17.83;69.01;100405.25;5005671;28;20424;-68
2022/10/22 09:47:36;;;;;;;17.52;11.65;;;;;;;17.86;68.92;100399.47;5007930;28;20037;-68
2022/10/22 09:50:37;;;;;;;20.33;12.10;;;;;;;18.20;69.10;100450.66;5011027;28;20030;-68
2022/10/22 09:53:25;;;;;;;23.38;15.50;;;;;;;18.74;66.84;100452.31;5008588;28;20125;-68
2022/10/22 09:55:55;;;;;;;19.27;13.57;;;;;;;19.35;64.52;100471.91;5009273;28;20373;-68
2022/10/22 09:58:21;;;;;;;18.13;11.95;;;;;;;19.43;62.87;100447.34;5017296;28;20034;-68
2022/10/22 10:00:52;;;;;;;21.08;11.52;;;;;;;19.50;62.61;100459.16;5010018;28;20030;-68
2022/10/22 10:03:20;;;;;;;15.38;10.75;;;;;;;19.66;62.47;100452.66;5007701;28;20180;-68
2022/10/22 10:05:48;;;;;;;15.93;10.13;;;;;;;20.13;60.11;100463.97;5008261;28;20030;-68
2022/10/22 10:08:15;;;;;;;12.65;9.07;;;;;;;20.35;58.79;100446.63;5009289;28;20068;-68
2022/10/22 10:11:14;;;;;;;13.10;8.82;;;;;;;20.46;57.50;100443.38;5010253;28;20026;-68
2022/10/22 10:13:46;;;;;;;14.88;8.63;;;;;;;20.53;57.59;100463.34;5009248;28;20056;-68
2022/10/22 10:16:30;;;;;;;13.63;7.90;;;;;;;20.42;56.63;100454.84;5007153;28;20435;-68
2022/10/22 10:19:11;;;;;;;11.77;6.40;;;;;;;20.24;55.29;100440.84;5003326;28;20077;-68
2022/10/22 10:21:45;;;;;;;11.70;6.65;;;;;;;20.28;54.51;100451.13;5004321;28;20025;-71
2022/10/22 10:24:24;;;;;;;10.50;5.95;;;;;;;20.23;54.39;100459.06;5006560;28;20484;-71
2022/10/22 10:27:01;;;;;;;9.02;6.90;;;;;;;20.18;54.30;100451.47;5008189;28;20112;-71
2022/10/22 10:29:29;;;;;;;8.10;6.18;;;;;;;20.15;53.84;100459.16;5009433;28;20053;-71
2022/10/22 10:32:47;;;;;;;8.07;6.07;;;;;;;20.17;53.95;100447.06;5006365;28;20044;-71
2022/10/22 10:35:34;;;;;;;8.07;5.45;;;;;;;20.19;52.91;100427.81;4986586;28;20120;-71
2022/10/22 10:38:21;;;;;;;9.30;5.53;;;;;;;20.33;52.87;100443.25;5007741;28;20045;-71
2022/10/22 10:40:54;;;;;;;8.57;5.68;;;;;;;20.40;52.13;100444.13;4997851;28;20124;-72
2022/10/22 10:43:41;;;;;;;8.17;5.90;;;;;;;20.51;52.16;100451.81;5006412;28;20844;-71
2022/10/22 10:46:23;;;;;;;9.90;5.68;;;;;;;20.59;52.09;100437.19;5008035;28;20018;-71
2022/10/22 10:48:59;;;;;;;10.65;6.45;;;;;;;20.71;51.54;100432.91;5006832;28;20026;-71
2022/10/22 10:51:27;;;;;;;10.77;6.03;;;;;;;20.81;51.05;100426.06;5009186;28;20392;-71
2022/10/22 10:53:58;;;;;;;8.60;4.45;;;;;;;20.82;51.09;100432.34;5004455;28;20042;-71
2022/10/22 10:56:39;;;;;;;8.60;4.85;;;;;;;20.83;50.81;100428.59;5007550;28;20472;-71
2022/10/22 10:59:30;;;;;;;8.85;4.68;;;;;;;20.62;50.62;100402.22;5008897;28;20021;-70
2022/10/22 11:02:15;;;;;;;5.80;4.43;;;;;;;20.88;50.01;100431.56;5008404;28;20756;-71
2022/10/22 11:04:41;;;;;;;7.95;4.47;;;;;;;20.87;49.70;100427.16;5007130;28;20042;-71
2022/10/22 11:07:12;;;;;;;9.57;4.60;;;;;;;20.87;49.61;100419.84;5007623;28;20037;-71
2022/10/22 11:09:55;;;;;;;8.43;4.40;;;;;;;20.93;49.36;100424.47;5004070;28;20065;-71
2022/10/22 11:12:26;;;;;;;7.63;4.22;;;;;;;20.96;49.31;100412.38;5004792;28;20751;-71
2022/10/22 11:15:13;;;;;;;6.32;3.92;;;;;;;21.04;49.06;100415.78;5000080;28;20145;-71
2022/10/22 11:17:43;;;;;;;11.02;4.70;;;;;;;21.10;48.81;100423.19;5004609;28;20084;-71
2022/10/22 11:20:26;;;;;;;6.72;4.38;;;;;;;21.13;48.58;100409.13;5008191;28;20109;-71
2022/10/22 11:23:13;;;;;;;7.35;4.47;;;;;;;21.14;48.51;100399.03;4998462;28;20065;-71